aviador You're here:

KMSS Decoded Metar

MASSENA in NY, USA
Report Time2017-06-23 22:16:00
UTC Time2017-06-23 22:31:58
Flight Rules vfr VFR
Wind240° at 05 kt
W.Decomp.*RWY 27: 4.8 kt HW 1.4 kt LCW
RWY 23: 4.6 kt HW 2.0 kt RCW
W.Rank240° ranks 4
Current wind is below 240° avg. (8.4)
Visibility9999 m
Phenomena:N/A
Clouds:Scattered 022 Hf
Broken 030 Hf
Overcast 038 Hf
Expected CloudBase > 400 ft AGL from Temp-Dew spread
Ceiling3,000 ft
Temp23°C (ISA +8)
Dew Point22°C (94% RH)
QNH999 hPa
Density Alt2,021 ft
Elevation217 ft
Report Wrong Elevation
Raw Report
KMSS 232216Z AUTO 24005KT 10SM SCT022 BKN030 OVC038 23/22 A2951
RMK AO2 RAE01 P0000 T02330217=

Extra information for KMSS:More info

Metar Taf Metar & Taf Last 4 Metars F.Rules Stats Wind Profile Meteogram Temp Stats Airport Information Weather charts Add Link Nearby VenuesMetar ALERT Operation Metar Decoded Social comments

AIRNAV info for KMSS